Time;durP1;ratioP1;P1;durP2;ratioP2;P2;SDS_P1;SDS_P2;PMS_P1;PMS_P2;Temp;Humidity;BMP_temperature;BMP_pressure;BME280_temperature;BME280_humidity;BME280_pressure;Samples;Min_cycle;Max_cycle;Signal;HPM_P1;HPM_P2
2021/07/17 00:00:52;;;;;;;25.38;16.63;;;;;;;;;;5094931;28;20226;-64
2021/07/17 00:03:21;;;;;;;23.02;15.50;;;;;;;;;;5078341;28;20213;-60
2021/07/17 00:05:49;;;;;;;17.35;15.25;;;;;;;;;;5074156;28;20672;-63
2021/07/17 00:08:19;;;;;;;23.83;15.75;;;;;;;;;;5074146;28;20251;-60
2021/07/17 00:10:48;;;;;;;25.02;14.82;;;;;;;;;;5074091;28;20300;-61
2021/07/17 00:13:16;;;;;;;22.92;15.35;;;;;;;;;;5074105;28;20272;-66
2021/07/17 00:15:45;;;;;;;23.88;14.95;;;;;;;;;;5074120;28;20201;-62
2021/07/17 00:18:15;;;;;;;21.30;14.50;;;;;;;;;;5074226;28;20270;-63
2021/07/17 00:20:43;;;;;;;24.50;14.63;;;;;;;;;;5074103;28;20291;-61
2021/07/17 00:23:11;;;;;;;21.67;14.13;;;;;;;;;;5073876;28;20197;-63
2021/07/17 00:25:42;;;;;;;19.65;13.20;;;;;;;;;;5073900;28;20295;-62
2021/07/17 00:28:11;;;;;;;20.20;13.95;;;;;;;;;;5074168;28;20226;-63
2021/07/17 00:30:39;;;;;;;22.35;14.35;;;;;;;;;;5073819;28;20624;-63
2021/07/17 00:33:07;;;;;;;24.52;15.30;;;;;;;;;;5073777;28;20200;-64
2021/07/17 00:35:36;;;;;;;27.42;15.70;;;;;;;;;;5073709;28;20550;-62
2021/07/17 00:38:04;;;;;;;22.98;15.15;;;;;;;;;;5073553;28;20296;-61
2021/07/17 00:40:33;;;;;;;21.58;14.38;;;;;;;;;;5073951;28;20222;-62
2021/07/17 00:43:03;;;;;;;22.60;15.15;;;;;;;;;;5073608;28;20645;-62
2021/07/17 00:45:31;;;;;;;23.15;14.98;;;;;;;;;;5073553;28;20613;-62
2021/07/17 00:47:59;;;;;;;26.35;15.60;;;;;;;;;;5073685;28;20205;-61
2021/07/17 00:50:27;;;;;;;20.80;15.52;;;;;;;;;;5073217;28;20221;-62
2021/07/17 00:52:56;;;;;;;23.52;14.95;;;;;;;;;;5075367;28;20189;-64
2021/07/17 00:55:27;;;;;;;20.13;14.68;;;;;;;;;;5093944;28;20302;-64
2021/07/17 00:57:55;;;;;;;25.75;15.07;;;;;;;;;;5093736;28;20227;-64
2021/07/17 01:00:25;;;;;;;21.27;14.48;;;;;;;;;;5093659;28;20246;-63
2021/07/17 01:02:54;;;;;;;21.63;14.80;;;;;;;;;;5093500;28;20208;-64
2021/07/17 01:05:22;;;;;;;30.58;15.60;;;;;;;;;;5093317;28;20200;-64
2021/07/17 01:07:50;;;;;;;23.10;14.95;;;;;;;;;;5092769;28;20200;-62
2021/07/17 01:10:19;;;;;;;17.80;13.93;;;;;;;;;;5092530;28;20247;-63
2021/07/17 01:12:48;;;;;;;20.75;14.45;;;;;;;;;;5092993;28;20572;-64
2021/07/17 01:15:16;;;;;;;25.35;15.60;;;;;;;;;;5092915;28;20290;-64
2021/07/17 01:17:46;;;;;;;22.42;14.25;;;;;;;;;;5092917;28;20299;-63
2021/07/17 01:20:16;;;;;;;23.67;15.23;;;;;;;;;;5092741;28;20302;-63
2021/07/17 01:22:46;;;;;;;26.08;15.65;;;;;;;;;;5092593;28;20184;-64
2021/07/17 01:25:15;;;;;;;19.35;14.05;;;;;;;;;;5092774;28;20200;-64
2021/07/17 01:27:43;;;;;;;20.27;13.02;;;;;;;;;;5092428;28;20618;-63
2021/07/17 01:30:12;;;;;;;23.63;13.05;;;;;;;;;;5092654;28;20250;-63
2021/07/17 01:32:40;;;;;;;23.40;13.60;;;;;;;;;;5092708;28;20296;-63
2021/07/17 01:35:09;;;;;;;22.30;13.57;;;;;;;;;;5092599;28;20564;-63
2021/07/17 01:37:38;;;;;;;20.63;13.38;;;;;;;;;;5092143;28;20203;-62
2021/07/17 01:40:10;;;;;;;21.52;13.18;;;;;;;;;;5092543;28;20583;-63
2021/07/17 01:42:39;;;;;;;23.08;14.05;;;;;;;;;;5092415;28;20230;-62
2021/07/17 01:45:09;;;;;;;21.50;13.85;;;;;;;;;;5092423;28;20306;-64
2021/07/17 01:47:37;;;;;;;20.77;13.10;;;;;;;;;;5091766;28;20725;-63
2021/07/17 01:50:06;;;;;;;21.17;13.55;;;;;;;;;;5092030;28;20222;-63
2021/07/17 01:52:34;;;;;;;23.70;13.65;;;;;;;;;;5091768;28;20327;-64
2021/07/17 01:55:02;;;;;;;20.02;11.75;;;;;;;;;;5092354;28;20203;-63
2021/07/17 01:57:32;;;;;;;21.40;12.88;;;;;;;;;;5092167;28;20200;-63
2021/07/17 02:00:00;;;;;;;21.17;12.85;;;;;;;;;;5092218;28;20644;-63
2021/07/17 02:02:28;;;;;;;23.08;13.18;;;;;;;;;;5092342;28;20211;-64
2021/07/17 02:04:56;;;;;;;19.90;13.15;;;;;;;;;;5091610;28;20242;-64
2021/07/17 02:07:25;;;;;;;16.67;12.68;;;;;;;;;;5091854;28;20196;-64
2021/07/17 02:09:53;;;;;;;21.52;12.98;;;;;;;;;;5092115;28;20265;-63
2021/07/17 02:12:21;;;;;;;24.83;13.60;;;;;;;;;;5091377;28;20196;-64
2021/07/17 02:14:52;;;;;;;17.77;12.75;;;;;;;;;;5092089;28;20563;-63
2021/07/17 02:17:20;;;;;;;21.65;13.15;;;;;;;;;;5092050;28;20184;-63
2021/07/17 02:19:48;;;;;;;17.98;12.00;;;;;;;;;;5092253;28;20226;-62
2021/07/17 02:22:16;;;;;;;17.65;12.20;;;;;;;;;;5091514;28;20218;-64
2021/07/17 02:24:44;;;;;;;24.30;13.25;;;;;;;;;;5092116;28;20203;-64
2021/07/17 02:27:13;;;;;;;19.20;12.23;;;;;;;;;;5091997;28;20200;-64
2021/07/17 02:29:41;;;;;;;25.73;14.05;;;;;;;;;;5091682;28;20827;-63
2021/07/17 02:32:10;;;;;;;21.67;13.23;;;;;;;;;;5091672;28;20605;-63
2021/07/17 02:34:39;;;;;;;20.65;12.93;;;;;;;;;;5091720;28;20200;-63
2021/07/17 02:37:07;;;;;;;22.73;13.70;;;;;;;;;;5091756;28;20204;-63
2021/07/17 02:39:35;;;;;;;23.45;13.77;;;;;;;;;;5091979;28;20200;-63
2021/07/17 02:42:03;;;;;;;20.25;13.80;;;;;;;;;;5091604;28;20863;-63
2021/07/17 02:44:31;;;;;;;22.73;15.85;;;;;;;;;;5092160;28;20243;-63
2021/07/17 02:47:00;;;;;;;27.67;14.93;;;;;;;;;;5092458;28;20282;-64
2021/07/17 02:49:29;;;;;;;25.45;15.13;;;;;;;;;;5092393;28;20210;-63
2021/07/17 02:51:57;;;;;;;28.98;15.95;;;;;;;;;;5091917;28;20234;-64
2021/07/17 02:54:26;;;;;;;24.60;15.07;;;;;;;;;;5091873;28;20682;-64
2021/07/17 02:56:54;;;;;;;26.10;16.13;;;;;;;;;;5092154;28;20204;-64
2021/07/17 02:59:23;;;;;;;23.90;15.63;;;;;;;;;;5093096;28;20200;-63
2021/07/17 03:01:51;;;;;;;23.48;15.85;;;;;;;;;;5095714;28;20678;-63
2021/07/17 03:04:19;;;;;;;27.88;17.10;;;;;;;;;;5096057;28;20195;-63
2021/07/17 03:06:49;;;;;;;24.80;16.67;;;;;;;;;;5095856;28;20210;-64
2021/07/17 03:09:17;;;;;;;24.75;17.10;;;;;;;;;;5095860;28;20276;-63
2021/07/17 03:11:45;;;;;;;24.73;15.65;;;;;;;;;;5095876;28;20318;-64
2021/07/17 03:14:13;;;;;;;27.92;16.23;;;;;;;;;;5095943;28;20196;-64
2021/07/17 03:16:42;;;;;;;30.23;17.00;;;;;;;;;;5095440;28;20200;-64
2021/07/17 03:19:10;;;;;;;23.40;16.05;;;;;;;;;;5095827;28;20200;-64
2021/07/17 03:21:39;;;;;;;28.08;17.10;;;;;;;;;;5095508;28;20288;-64
2021/07/17 03:24:09;;;;;;;26.55;16.30;;;;;;;;;;5095301;28;20557;-63
2021/07/17 03:26:37;;;;;;;27.35;17.30;;;;;;;;;;5087818;28;20288;-64
2021/07/17 03:29:05;;;;;;;29.33;16.73;;;;;;;;;;5075651;28;20196;-64
2021/07/17 03:31:33;;;;;;;24.00;16.95;;;;;;;;;;5074869;28;20260;-64
2021/07/17 03:34:02;;;;;;;26.80;15.82;;;;;;;;;;5075321;28;20224;-64
2021/07/17 03:36:30;;;;;;;29.20;17.05;;;;;;;;;;5075139;28;20201;-65
2021/07/17 03:38:59;;;;;;;24.90;15.45;;;;;;;;;;5074719;28;20227;-65
2021/07/17 03:41:28;;;;;;;24.75;16.25;;;;;;;;;;5075023;28;20254;-64
2021/07/17 03:43:57;;;;;;;24.48;15.85;;;;;;;;;;5077193;28;20207;-63
2021/07/17 03:46:25;;;;;;;24.63;16.05;;;;;;;;;;5079977;28;20207;-64
2021/07/17 03:48:53;;;;;;;27.27;16.10;;;;;;;;;;5078861;28;20288;-63
2021/07/17 03:51:21;;;;;;;28.05;15.95;;;;;;;;;;5084424;28;20228;-64
2021/07/17 03:53:49;;;;;;;28.17;16.23;;;;;;;;;;5095072;28;20196;-63
2021/07/17 03:56:17;;;;;;;21.98;15.25;;;;;;;;;;5094927;28;20206;-63
2021/07/17 03:58:47;;;;;;;24.52;15.18;;;;;;;;;;5094971;28;20206;-65
2021/07/17 04:01:16;;;;;;;20.83;14.38;;;;;;;;;;5094593;28;20778;-64
2021/07/17 04:03:47;;;;;;;25.38;15.52;;;;;;;;;;5094903;28;20733;-64
2021/07/17 04:06:15;;;;;;;28.48;15.32;;;;;;;;;;5094668;28;20538;-64
2021/07/17 04:08:44;;;;;;;28.50;15.35;;;;;;;;;;5094641;28;20200;-63
2021/07/17 04:11:12;;;;;;;23.25;15.70;;;;;;;;;;5094353;28;20302;-62
2021/07/17 04:13:40;;;;;;;28.02;15.73;;;;;;;;;;5094652;28;20216;-64
2021/07/17 04:16:09;;;;;;;28.77;16.10;;;;;;;;;;5094501;28;20200;-63
2021/07/17 04:18:38;;;;;;;27.95;15.80;;;;;;;;;;5094155;28;20204;-63
2021/07/17 04:21:06;;;;;;;26.02;16.02;;;;;;;;;;5094263;28;20198;-63
2021/07/17 04:23:34;;;;;;;30.52;17.35;;;;;;;;;;5093854;28;20751;-64
2021/07/17 04:26:02;;;;;;;26.73;18.38;;;;;;;;;;5094193;28;20587;-64
2021/07/17 04:28:30;;;;;;;37.03;21.00;;;;;;;;;;5094214;28;20294;-64
2021/07/17 04:30:59;;;;;;;28.13;19.95;;;;;;;;;;5094280;28;20304;-64
2021/07/17 04:33:28;;;;;;;32.50;22.05;;;;;;;;;;5094249;28;20212;-63
2021/07/17 04:35:56;;;;;;;34.47;22.45;;;;;;;;;;5094146;28;20199;-65
2021/07/17 04:38:25;;;;;;;36.67;23.52;;;;;;;;;;5094032;28;20200;-64
2021/07/17 04:40:53;;;;;;;35.10;23.02;;;;;;;;;;5094018;28;20196;-64
2021/07/17 04:43:21;;;;;;;35.72;23.40;;;;;;;;;;5093934;28;20716;-64
2021/07/17 04:45:49;;;;;;;37.45;24.17;;;;;;;;;;5093828;28;20200;-64
2021/07/17 04:48:17;;;;;;;33.88;24.10;;;;;;;;;;5093903;28;20223;-63
2021/07/17 04:50:47;;;;;;;35.38;23.83;;;;;;;;;;5093700;28;20258;-63
2021/07/17 04:53:15;;;;;;;37.15;24.02;;;;;;;;;;5093457;28;20208;-65
2021/07/17 04:55:43;;;;;;;35.97;24.80;;;;;;;;;;5093886;28;20295;-62
2021/07/17 04:58:11;;;;;;;34.95;24.73;;;;;;;;;;5094124;28;20562;-65
2021/07/17 05:00:40;;;;;;;36.40;24.75;;;;;;;;;;5094435;28;20323;-63
2021/07/17 05:03:08;;;;;;;34.33;24.15;;;;;;;;;;5094387;28;20191;-63
2021/07/17 05:05:36;;;;;;;38.22;24.58;;;;;;;;;;5094793;28;20644;-64
2021/07/17 05:08:06;;;;;;;37.45;24.58;;;;;;;;;;5094225;28;20204;-64
2021/07/17 05:10:34;;;;;;;36.25;24.17;;;;;;;;;;5094175;28;20200;-63
2021/07/17 05:13:10;;;;;;;35.00;24.48;;;;;;;;;;5093441;28;20219;-63
2021/07/17 05:15:38;;;;;;;32.63;23.73;;;;;;;;;;5093571;28;20180;-64
2021/07/17 05:18:07;;;;;;;31.80;23.95;;;;;;;;;;5093749;28;20242;-64
2021/07/17 05:20:35;;;;;;;29.33;23.23;;;;;;;;;;5093619;28;20278;-66
2021/07/17 05:23:03;;;;;;;36.05;24.48;;;;;;;;;;5092468;28;20192;-62
2021/07/17 05:25:33;;;;;;;34.38;23.95;;;;;;;;;;5093368;28;20299;-62
2021/07/17 05:28:01;;;;;;;29.67;23.08;;;;;;;;;;5073871;28;20197;-64
2021/07/17 05:30:30;;;;;;;32.67;24.55;;;;;;;;;;5073510;28;20197;-62
2021/07/17 05:32:58;;;;;;;30.95;23.42;;;;;;;;;;5073092;28;20570;-63
2021/07/17 05:35:28;;;;;;;30.30;23.80;;;;;;;;;;5073367;28;20683;-64
2021/07/17 05:37:56;;;;;;;27.35;22.80;;;;;;;;;;5072992;28;20208;-63
2021/07/17 05:40:25;;;;;;;32.28;24.02;;;;;;;;;;5073092;28;20222;-64
2021/07/17 05:42:54;;;;;;;28.58;22.65;;;;;;;;;;5072804;28;20664;-64
2021/07/17 05:45:22;;;;;;;27.50;22.55;;;;;;;;;;5072890;28;20201;-63
2021/07/17 05:47:50;;;;;;;29.20;22.10;;;;;;;;;;5073207;28;20205;-63
2021/07/17 05:50:20;;;;;;;26.27;21.95;;;;;;;;;;5073298;28;20201;-63
2021/07/17 05:52:49;;;;;;;27.85;21.38;;;;;;;;;;5092761;28;20211;-63
2021/07/17 05:55:17;;;;;;;28.75;22.67;;;;;;;;;;5092487;28;20599;-64
2021/07/17 05:57:46;;;;;;;28.90;22.80;;;;;;;;;;5092815;28;20200;-63
2021/07/17 06:00:19;;;;;;;29.25;23.80;;;;;;;;;;5092879;28;20203;-64
2021/07/17 06:02:47;;;;;;;25.02;21.80;;;;;;;;;;5092670;28;20176;-62
2021/07/17 06:05:16;;;;;;;30.27;22.95;;;;;;;;;;5092423;28;20675;-64
2021/07/17 06:07:44;;;;;;;31.85;23.13;;;;;;;;;;5092414;28;20302;-63
2021/07/17 06:10:13;;;;;;;28.65;22.15;;;;;;;;;;5093026;28;20203;-63
2021/07/17 06:12:41;;;;;;;27.08;21.05;;;;;;;;;;5092685;28;20273;-64
2021/07/17 06:15:09;;;;;;;25.42;21.10;;;;;;;;;;5092386;28;20735;-64
2021/07/17 06:17:39;;;;;;;25.63;20.83;;;;;;;;;;5092709;28;20196;-64
2021/07/17 06:20:07;;;;;;;25.45;19.25;;;;;;;;;;5092783;28;20196;-64
2021/07/17 06:22:35;;;;;;;27.33;20.10;;;;;;;;;;5092023;28;20200;-64
2021/07/17 06:25:05;;;;;;;25.15;18.80;;;;;;;;;;5092724;28;20206;-66
2021/07/17 06:27:33;;;;;;;23.40;19.85;;;;;;;;;;5092741;28;20544;-62
2021/07/17 06:30:01;;;;;;;25.83;20.65;;;;;;;;;;5092627;28;20287;-63
2021/07/17 06:32:29;;;;;;;25.92;20.52;;;;;;;;;;5092107;28;20598;-63
2021/07/17 06:34:59;;;;;;;23.73;19.80;;;;;;;;;;5095966;28;20200;-63
2021/07/17 06:37:27;;;;;;;19.73;17.63;;;;;;;;;;5096337;28;20291;-64
2021/07/17 06:39:55;;;;;;;21.13;18.40;;;;;;;;;;5096150;28;20196;-65
2021/07/17 06:42:23;;;;;;;20.38;18.08;;;;;;;;;;5096395;28;20196;-63
2021/07/17 06:44:51;;;;;;;20.98;16.98;;;;;;;;;;5095919;28;20200;-63
2021/07/17 06:47:22;;;;;;;19.25;17.15;;;;;;;;;;5096354;28;20190;-63
2021/07/17 06:49:50;;;;;;;23.83;17.27;;;;;;;;;;5096341;28;20294;-62
2021/07/17 06:52:20;;;;;;;21.08;18.08;;;;;;;;;;5095596;28;20692;-63
2021/07/17 06:54:48;;;;;;;21.75;18.17;;;;;;;;;;5096333;28;20196;-63
2021/07/17 06:57:16;;;;;;;25.23;18.58;;;;;;;;;;5096454;28;20195;-62
2021/07/17 06:59:44;;;;;;;22.70;17.73;;;;;;;;;;5095992;28;20287;-64
2021/07/17 07:02:12;;;;;;;23.02;19.08;;;;;;;;;;5096068;28;20299;-64
2021/07/17 07:04:41;;;;;;;22.27;17.83;;;;;;;;;;5095318;28;20286;-63
2021/07/17 07:07:09;;;;;;;22.48;17.25;;;;;;;;;;5095755;28;20337;-63
2021/07/17 07:09:38;;;;;;;22.52;18.05;;;;;;;;;;5095580;28;20652;-63
2021/07/17 07:12:07;;;;;;;23.52;19.08;;;;;;;;;;5095799;28;20231;-66
2021/07/17 07:14:35;;;;;;;26.10;18.27;;;;;;;;;;5095644;28;20295;-63
2021/07/17 07:17:04;;;;;;;23.45;18.25;;;;;;;;;;5095735;28;20200;-64
2021/07/17 07:19:32;;;;;;;23.77;19.60;;;;;;;;;;5095788;28;20204;-63
2021/07/17 07:22:01;;;;;;;24.25;18.88;;;;;;;;;;5095569;28;20211;-63
2021/07/17 07:24:30;;;;;;;22.38;17.48;;;;;;;;;;5095651;28;20253;-63
2021/07/17 07:26:59;;;;;;;22.35;17.88;;;;;;;;;;5095467;28;20217;-63
2021/07/17 07:29:27;;;;;;;20.23;17.20;;;;;;;;;;5095573;28;20298;-62
2021/07/17 07:31:56;;;;;;;23.27;17.80;;;;;;;;;;5095529;28;20235;-64
2021/07/17 07:34:25;;;;;;;21.23;17.13;;;;;;;;;;5095385;28;20249;-63
2021/07/17 07:36:53;;;;;;;23.38;18.88;;;;;;;;;;5095310;28;20204;-62
2021/07/17 07:39:21;;;;;;;22.45;17.45;;;;;;;;;;5095225;28;20208;-63
2021/07/17 07:41:49;;;;;;;26.17;19.05;;;;;;;;;;5095269;28;20200;-62
2021/07/17 07:44:19;;;;;;;26.80;20.00;;;;;;;;;;5095316;28;20632;-63
2021/07/17 07:46:47;;;;;;;26.17;20.55;;;;;;;;;;5094472;28;20215;-63
2021/07/17 07:49:15;;;;;;;28.27;20.73;;;;;;;;;;5074838;28;20664;-64
2021/07/17 07:51:44;;;;;;;27.48;21.48;;;;;;;;;;5083429;28;20746;-63
2021/07/17 07:54:12;;;;;;;24.88;20.83;;;;;;;;;;5094564;28;20214;-63
2021/07/17 07:56:40;;;;;;;27.33;22.30;;;;;;;;;;5094621;28;20204;-63
2021/07/17 07:59:08;;;;;;;28.73;22.08;;;;;;;;;;5094277;28;20208;-64
2021/07/17 08:01:38;;;;;;;29.85;22.20;;;;;;;;;;5093889;28;20281;-63
2021/07/17 08:04:06;;;;;;;26.80;21.65;;;;;;;;;;5094411;28;20722;-63
2021/07/17 08:06:34;;;;;;;31.98;22.17;;;;;;;;;;5094194;28;20287;-62
2021/07/17 08:09:03;;;;;;;29.42;23.55;;;;;;;;;;5094388;28;20196;-63
2021/07/17 08:11:31;;;;;;;32.83;22.88;;;;;;;;;;5094683;28;20572;-63
2021/07/17 08:13:59;;;;;;;28.15;22.70;;;;;;;;;;5094368;28;20627;-63
2021/07/17 08:16:27;;;;;;;31.83;22.65;;;;;;;;;;5094787;28;20423;-63
2021/07/17 08:18:57;;;;;;;30.63;22.67;;;;;;;;;;5094256;28;20710;-65
2021/07/17 08:21:25;;;;;;;33.25;23.92;;;;;;;;;;5094535;28;20200;-63
2021/07/17 08:23:57;;;;;;;33.17;24.38;;;;;;;;;;5094371;28;20522;-64
2021/07/17 08:26:25;;;;;;;31.58;24.20;;;;;;;;;;5094102;28;20278;-63
2021/07/17 08:28:54;;;;;;;34.58;25.00;;;;;;;;;;5094468;28;20230;-64
2021/07/17 08:31:22;;;;;;;32.00;24.15;;;;;;;;;;5094385;28;20219;-63
2021/07/17 08:33:50;;;;;;;36.38;23.10;;;;;;;;;;5078512;28;20232;-61
2021/07/17 08:36:20;;;;;;;34.55;24.05;;;;;;;;;;5073622;28;20210;-59
2021/07/17 08:38:48;;;;;;;34.38;23.67;;;;;;;;;;5073797;28;20291;-58
2021/07/17 08:41:17;;;;;;;34.80;23.15;;;;;;;;;;5074005;28;20207;-60
2021/07/17 08:43:46;;;;;;;33.88;23.98;;;;;;;;;;5073805;28;20201;-63
2021/07/17 08:46:14;;;;;;;33.53;22.17;;;;;;;;;;5078550;28;20630;-59
2021/07/17 08:48:43;;;;;;;32.28;23.77;;;;;;;;;;5077612;28;20207;-61
2021/07/17 08:51:11;;;;;;;31.33;22.73;;;;;;;;;;5084324;28;20232;-64
2021/07/17 08:53:42;;;;;;;29.85;21.67;;;;;;;;;;5093492;28;20315;-64
2021/07/17 08:56:10;;;;;;;31.77;21.30;;;;;;;;;;5090082;28;20191;-64
2021/07/17 08:58:39;;;;;;;26.70;21.08;;;;;;;;;;5092185;28;20204;-64
2021/07/17 09:01:07;;;;;;;30.58;22.15;;;;;;;;;;5093276;28;20210;-64
2021/07/17 09:03:35;;;;;;;29.63;21.13;;;;;;;;;;5081418;28;20195;-64
2021/07/17 09:06:04;;;;;;;29.25;21.25;;;;;;;;;;5081365;28;20223;-64
2021/07/17 09:08:32;;;;;;;28.42;21.00;;;;;;;;;;5075709;28;20382;-64
2021/07/17 09:11:02;;;;;;;30.92;21.00;;;;;;;;;;5082683;28;20254;-67
2021/07/17 09:13:31;;;;;;;24.98;19.58;;;;;;;;;;5073949;28;20217;-64
2021/07/17 09:16:01;;;;;;;28.40;20.02;;;;;;;;;;5072738;28;20752;-64
2021/07/17 09:18:31;;;;;;;27.38;20.90;;;;;;;;;;5072923;28;20189;-64
2021/07/17 09:21:00;;;;;;;25.85;19.38;;;;;;;;;;5072601;28;20201;-62
2021/07/17 09:23:30;;;;;;;32.53;21.58;;;;;;;;;;5072583;28;20323;-64
2021/07/17 09:26:01;;;;;;;27.50;20.27;;;;;;;;;;5075017;28;20200;-64
2021/07/17 09:28:32;;;;;;;27.50;19.80;;;;;;;;;;5092988;28;20308;-65
2021/07/17 09:31:01;;;;;;;23.65;19.20;;;;;;;;;;5092991;28;20267;-64
2021/07/17 09:33:29;;;;;;;30.58;20.75;;;;;;;;;;5092832;28;20231;-65
2021/07/17 09:35:58;;;;;;;24.25;18.95;;;;;;;;;;5092936;28;20210;-63
2021/07/17 09:38:29;;;;;;;27.85;20.20;;;;;;;;;;5092557;28;20283;-63
2021/07/17 09:40:59;;;;;;;25.67;18.52;;;;;;;;;;5092714;28;20203;-64
2021/07/17 09:43:28;;;;;;;28.17;20.63;;;;;;;;;;5092703;28;20238;-63
2021/07/17 09:45:58;;;;;;;29.55;20.40;;;;;;;;;;5092557;28;20529;-64
2021/07/17 09:48:27;;;;;;;26.35;20.02;;;;;;;;;;5092732;28;20199;-63
2021/07/17 09:50:57;;;;;;;31.25;20.02;;;;;;;;;;5092250;28;20235;-63
2021/07/17 09:53:45;;;;;;;29.15;20.77;;;;;;;;;;5092211;28;20210;-63
2021/07/17 09:56:14;;;;;;;29.08;19.77;;;;;;;;;;5092672;28;20196;-62
2021/07/17 09:58:43;;;;;;;29.83;20.00;;;;;;;;;;5092618;28;20196;-62
2021/07/17 10:01:20;;;;;;;27.30;20.13;;;;;;;;;;5092327;28;20200;-62
2021/07/17 10:03:49;;;;;;;27.45;20.98;;;;;;;;;;5092205;28;20539;-61
2021/07/17 10:06:28;;;;;;;28.95;20.15;;;;;;;;;;5092404;28;20204;-60
2021/07/17 10:08:56;;;;;;;33.58;21.83;;;;;;;;;;5094159;28;20195;-59
2021/07/17 10:11:25;;;;;;;31.50;21.65;;;;;;;;;;5096655;28;20199;-59
2021/07/17 10:13:54;;;;;;;26.33;18.95;;;;;;;;;;5096707;28;20214;-60
2021/07/17 10:16:24;;;;;;;35.40;22.58;;;;;;;;;;5096730;28;20250;-64
2021/07/17 10:18:54;;;;;;;30.10;22.08;;;;;;;;;;5096530;28;20282;-61
2021/07/17 10:21:22;;;;;;;34.08;21.80;;;;;;;;;;5096204;28;20286;-65
2021/07/17 10:23:50;;;;;;;37.30;22.67;;;;;;;;;;5096219;28;20287;-64
2021/07/17 10:26:19;;;;;;;29.23;21.92;;;;;;;;;;5096373;28;20196;-65
2021/07/17 10:28:47;;;;;;;31.83;22.42;;;;;;;;;;5096244;28;20204;-66
2021/07/17 10:31:15;;;;;;;28.77;20.92;;;;;;;;;;5096251;28;20242;-64
2021/07/17 10:33:45;;;;;;;34.25;22.65;;;;;;;;;;5096266;28;20302;-64
2021/07/17 10:36:15;;;;;;;35.15;23.88;;;;;;;;;;5095882;28;20294;-63
2021/07/17 10:38:45;;;;;;;36.53;24.92;;;;;;;;;;5095903;28;20180;-63
2021/07/17 10:41:14;;;;;;;33.00;23.80;;;;;;;;;;5095788;28;20663;-64
2021/07/17 10:43:43;;;;;;;31.50;22.08;;;;;;;;;;5095789;28;20204;-64
2021/07/17 10:46:29;;;;;;;35.42;24.25;;;;;;;;;;5096197;28;20279;-64
2021/07/17 10:48:59;;;;;;;36.00;23.80;;;;;;;;;;5096006;28;20184;-64
2021/07/17 10:51:30;;;;;;;40.88;24.95;;;;;;;;;;5095620;28;20231;-65
2021/07/17 10:54:00;;;;;;;38.13;24.80;;;;;;;;;;5095870;28;20288;-66
2021/07/17 10:56:43;;;;;;;33.17;23.50;;;;;;;;;;5096122;28;20184;-67
2021/07/17 10:59:41;;;;;;;40.03;24.52;;;;;;;;;;5093756;28;20199;-64
2021/07/17 11:02:10;;;;;;;33.72;24.52;;;;;;;;;;5032689;28;20845;-67
2021/07/17 11:04:49;;;;;;;33.05;22.52;;;;;;;;;;5082447;28;20204;-72
2021/07/17 11:07:42;;;;;;;38.90;23.83;;;;;;;;;;5095864;28;20188;-63
2021/07/17 11:10:20;;;;;;;37.65;23.85;;;;;;;;;;5095469;28;20265;-68
2021/07/17 11:12:50;;;;;;;38.22;25.55;;;;;;;;;;5095323;28;20195;-61
2021/07/17 11:15:35;;;;;;;35.70;23.60;;;;;;;;;;5095388;28;20573;-60
2021/07/17 11:18:19;;;;;;;35.88;24.00;;;;;;;;;;5095251;28;20206;-61
2021/07/17 11:20:49;;;;;;;34.08;23.45;;;;;;;;;;5094610;28;20299;-61
2021/07/17 11:23:19;;;;;;;39.80;24.77;;;;;;;;;;5095223;28;20323;-60
2021/07/17 11:25:55;;;;;;;37.60;25.13;;;;;;;;;;5094619;28;20204;-63
2021/07/17 11:28:38;;;;;;;41.50;29.15;;;;;;;;;;5075108;28;20211;-63
2021/07/17 11:31:21;;;;;;;38.55;25.50;;;;;;;;;;5074585;28;20274;-64
2021/07/17 11:34:10;;;;;;;37.92;25.85;;;;;;;;;;5074720;28;20189;-63
2021/07/17 11:36:39;;;;;;;41.78;26.20;;;;;;;;;;5074293;28;20699;-63
2021/07/17 11:39:09;;;;;;;40.15;25.33;;;;;;;;;;5074268;28;20204;-64
2021/07/17 11:41:37;;;;;;;39.13;25.95;;;;;;;;;;5074637;28;20212;-64
2021/07/17 11:44:05;;;;;;;40.03;25.60;;;;;;;;;;5074903;28;20242;-64
2021/07/17 11:46:34;;;;;;;30.27;24.17;;;;;;;;;;5074740;28;20193;-64
2021/07/17 11:49:03;;;;;;;31.75;23.20;;;;;;;;;;5074447;28;20205;-64
2021/07/17 11:51:31;;;;;;;35.13;26.42;;;;;;;;;;5084929;28;20231;-64
2021/07/17 11:54:02;;;;;;;41.03;28.45;;;;;;;;;;5094459;28;20265;-65
2021/07/17 11:56:30;;;;;;;45.55;27.20;;;;;;;;;;5094788;28;20204;-64
2021/07/17 11:59:12;;;;;;;33.20;24.38;;;;;;;;;;5094409;28;20283;-64
2021/07/17 12:01:40;;;;;;;44.70;28.67;;;;;;;;;;5094300;28;20584;-65
2021/07/17 12:04:08;;;;;;;41.50;27.17;;;;;;;;;;5094602;28;20266;-66
2021/07/17 12:06:37;;;;;;;31.35;22.92;;;;;;;;;;5094317;28;20200;-65
2021/07/17 12:09:11;;;;;;;33.17;24.15;;;;;;;;;;5094065;28;20200;-65
2021/07/17 12:11:39;;;;;;;31.33;22.58;;;;;;;;;;5094314;28;20539;-65
2021/07/17 12:14:18;;;;;;;33.80;23.05;;;;;;;;;;5094275;28;20290;-64
2021/07/17 12:16:47;;;;;;;33.35;23.85;;;;;;;;;;5094431;28;20200;-65
2021/07/17 12:19:19;;;;;;;34.55;24.65;;;;;;;;;;5094481;28;20208;-64
2021/07/17 12:21:47;;;;;;;31.13;24.10;;;;;;;;;;5094365;28;20180;-64
2021/07/17 12:24:17;;;;;;;37.45;25.13;;;;;;;;;;5093943;28;20560;-64
2021/07/17 12:26:45;;;;;;;34.67;23.73;;;;;;;;;;5094273;28;20188;-65
2021/07/17 12:29:14;;;;;;;37.50;25.23;;;;;;;;;;5094410;28;20204;-64
2021/07/17 12:31:56;;;;;;;31.77;22.98;;;;;;;;;;5093890;28;20747;-64
2021/07/17 12:34:25;;;;;;;35.80;21.73;;;;;;;;;;5094140;28;20188;-64
2021/07/17 12:36:53;;;;;;;32.40;23.25;;;;;;;;;;5093815;28;20234;-63
2021/07/17 12:39:23;;;;;;;34.15;22.50;;;;;;;;;;5093867;28;20212;-65
2021/07/17 12:41:51;;;;;;;31.35;22.00;;;;;;;;;;5093961;28;20212;-64
2021/07/17 12:44:19;;;;;;;27.25;20.60;;;;;;;;;;5093485;28;20211;-62
2021/07/17 12:46:48;;;;;;;27.85;20.50;;;;;;;;;;5093535;28;20196;-62
2021/07/17 12:49:18;;;;;;;25.50;18.75;;;;;;;;;;5093520;28;20202;-62
2021/07/17 12:51:47;;;;;;;25.50;18.27;;;;;;;;;;5093202;28;20232;-62
2021/07/17 12:54:16;;;;;;;25.27;18.95;;;;;;;;;;5093586;28;20296;-61
2021/07/17 12:56:48;;;;;;;22.15;18.00;;;;;;;;;;5093327;28;20219;-61
2021/07/17 12:59:17;;;;;;;24.30;19.17;;;;;;;;;;5093706;28;20301;-61
2021/07/17 13:01:47;;;;;;;23.40;16.73;;;;;;;;;;5093472;28;20290;-61
2021/07/17 13:04:16;;;;;;;20.27;16.40;;;;;;;;;;5093559;28;20208;-60
2021/07/17 13:06:55;;;;;;;22.75;17.85;;;;;;;;;;5094507;28;20227;-63
2021/07/17 13:09:27;;;;;;;23.45;18.55;;;;;;;;;;5093755;28;20188;-63
2021/07/17 13:11:57;;;;;;;22.92;16.33;;;;;;;;;;5092926;28;20673;-62
2021/07/17 13:14:26;;;;;;;24.17;18.23;;;;;;;;;;5093515;28;20180;-63
2021/07/17 13:16:54;;;;;;;24.23;17.92;;;;;;;;;;5092919;28;20219;-62
2021/07/17 13:19:23;;;;;;;18.67;14.98;;;;;;;;;;5093357;28;20204;-62
2021/07/17 13:21:52;;;;;;;23.23;17.67;;;;;;;;;;5093073;28;20214;-62
2021/07/17 13:24:21;;;;;;;21.50;14.88;;;;;;;;;;5093047;28;20222;-62
2021/07/17 13:26:53;;;;;;;28.05;18.55;;;;;;;;;;5089257;28;20192;-61
2021/07/17 13:29:24;;;;;;;23.23;17.50;;;;;;;;;;5093059;28;20275;-63
2021/07/17 13:31:57;;;;;;;23.23;17.55;;;;;;;;;;5093003;28;20210;-63
2021/07/17 13:34:27;;;;;;;27.67;18.25;;;;;;;;;;5092802;28;20180;-62
2021/07/17 13:36:56;;;;;;;19.58;16.15;;;;;;;;;;5092764;28;20224;-63
2021/07/17 13:39:24;;;;;;;22.58;17.10;;;;;;;;;;5092322;28;20204;-63
2021/07/17 13:42:04;;;;;;;22.15;16.67;;;;;;;;;;5092888;28;20208;-65
2021/07/17 13:44:34;;;;;;;24.58;16.45;;;;;;;;;;5092698;28;20206;-63
2021/07/17 13:47:13;;;;;;;20.10;15.30;;;;;;;;;;5096533;28;20287;-61
2021/07/17 13:49:41;;;;;;;24.80;17.10;;;;;;;;;;5097449;28;20199;-64
2021/07/17 13:52:28;;;;;;;23.90;16.60;;;;;;;;;;5094685;28;20614;-64
2021/07/17 13:54:56;;;;;;;23.63;17.88;;;;;;;;;;5092463;28;20202;-63
2021/07/17 13:57:33;;;;;;;22.95;16.92;;;;;;;;;;5092220;28;20243;-62
2021/07/17 14:00:04;;;;;;;23.77;18.02;;;;;;;;;;5092343;28;20614;-62
2021/07/17 14:02:48;;;;;;;20.05;16.10;;;;;;;;;;5092351;28;20188;-63
2021/07/17 14:05:17;;;;;;;18.85;15.65;;;;;;;;;;5092223;28;20204;-63
2021/07/17 14:07:45;;;;;;;23.33;18.50;;;;;;;;;;5091740;28;20678;-63
2021/07/17 14:10:13;;;;;;;22.52;17.98;;;;;;;;;;5091767;28;20664;-63
2021/07/17 14:12:42;;;;;;;20.48;15.93;;;;;;;;;;5092064;28;20199;-63
2021/07/17 14:15:12;;;;;;;26.38;16.85;;;;;;;;;;5091754;28;20671;-63
2021/07/17 14:17:41;;;;;;;19.92;15.43;;;;;;;;;;5091711;28;20700;-63
2021/07/17 14:20:09;;;;;;;21.63;16.92;;;;;;;;;;5091780;28;20200;-62
2021/07/17 14:22:37;;;;;;;21.50;16.38;;;;;;;;;;5091515;28;20290;-64
2021/07/17 14:25:06;;;;;;;19.40;16.25;;;;;;;;;;5092054;28;20291;-63
2021/07/17 14:27:34;;;;;;;18.02;14.35;;;;;;;;;;5091646;28;20207;-63
2021/07/17 14:30:03;;;;;;;15.65;13.63;;;;;;;;;;5091931;28;20208;-62